This is the latest recevied weather packets stored in our database for station/object KA1AL. If no packets are shown the sender has not sent any weather packets the latest 1 day(s).
| Time | Temp. | Humidity | Pressure | Rain* | Wind** | Luminosity | Snow |
|---|---|---|---|---|---|---|---|
| 1836274838 | 8.33° C | 69% | 1020.4 hPa | 0 mm | 0.45 m/s, 159° | 0 W/m² | - |
| 1836274535 | 8.89° C | 68% | 1020.1 hPa | 0 mm | 0.45 m/s, 66° | 0 W/m² | - |
| 1836274389 | 8.33° C | 69% | 1020.5 hPa | 0 mm | 0.45 m/s, 62° | 0 W/m² | - |
| 1836274235 | 8.33° C | 68% | 1020.1 hPa | 0 mm | 1.34 m/s, 23° | 0 W/m² | - |
| 1836273933 | 8.89° C | 68% | 1020.3 hPa | 0 mm | 0.45 m/s, 63° | 0 W/m² | - |
| 1778046633 | 12.22° C | 99% | 1007 hPa | 0 mm | 0.45 m/s, 167° | 0 W/m² | - |
| 1778046330 | 12.22° C | 99% | 1007.2 hPa | 0 mm | 0.89 m/s, 225° | 0 W/m² | - |
| 1778044211 | 12.22° C | 99% | 1007 hPa | 0 mm | 0 m/s | 0 W/m² | - |
| 1778043909 | 12.22° C | 99% | 1007 hPa | 0 mm | 0 m/s | 0 W/m² | - |
| 1778041489 | 12.78° C | 99% | 1007.1 hPa | 0 mm | 0 m/s | 0 W/m² | - |
| 1778041186 | 12.78° C | 99% | 1006.8 hPa | 0 mm | 0 m/s | 0 W/m² | - |
| 1778040884 | 12.78° C | 99% | 1006.9 hPa | 0 mm | 0 m/s | 0 W/m² | - |
| 1778040581 | 12.78° C | 99% | 1007 hPa | 0 mm | 0 m/s | 0 W/m² | - |
| 1778040278 | 12.78° C | 99% | 1007.2 hPa | 0 mm | 0 m/s | 0 W/m² | - |
| 1778039974 | 12.78° C | 99% | 1007.1 hPa | 0 mm | 0 m/s | 0 W/m² | - |
| 1778039672 | 12.78° C | 99% | 1006.8 hPa | 0 mm | 0 m/s | 0 W/m² | - |
| 1778039368 | 12.78° C | 99% | 1006.9 hPa | 0 mm | 0.45 m/s, 217° | 0 W/m² | - |
| 1778039066 | 12.78° C | 99% | 1006.9 hPa | 0 mm | 0 m/s | 0 W/m² | - |
| 1778038763 | 12.78° C | 99% | 1006.7 hPa | 0 mm | 1.34 m/s, 165° | 0 W/m² | - |
| 1778038460 | 13.33° C | 99% | 1006.9 hPa | 0 mm | 1.34 m/s, 175° | 0 W/m² | - |
| 1778038157 | 13.33° C | 99% | 1006.8 hPa | 0 mm | 0.89 m/s, 184° | 0 W/m² | - |
| 1778037854 | 13.33° C | 99% | 1007.2 hPa | 0 mm | 1.34 m/s, 180° | 0 W/m² | - |
| 1778037550 | 13.33° C | 99% | 1006.8 hPa | 0 mm | 1.34 m/s, 180° | 0 W/m² | - |
| 1778037248 | 13.33° C | 99% | 1006.9 hPa | 1.27 mm | 1.34 m/s, 201° | 0 W/m² | - |
| 1778036945 | 13.33° C | 99% | 1007 hPa | 1.27 mm | 0.89 m/s, 168° | 0 W/m² | - |
* Rain latest hour (hover to see other rain measurements)
** Current wind speed in m/s (hover to see current wind gust speed)